Latest Coastal Weather Observations for Albion Park

IDN60701

Issued at 8:21 am EST Wednesday 26 April 2017 (issued every 10 minutes, with the page automatically refreshed every 10 minutes)

About coastal observations | Map of coastal stations | Coastal observations for NSW | Marine services | Other Formats
Station Details ID: 068241 Name: WOLLONGONG AIRPORT Lat: -34.56 Lon: 150.79 Height: 8.0 m
Data from the previous 72 hours. | See also: Recent months at Albion Park
Date/Time
EST
Temp
°C
Wind Pressure Rain since
9am
mm
Weather Cloud Vis
km
Sea
Height
m
Swell
Dir  Spd
kts
Gust
kts
hPa Trend Height
m
Period
s
Dir
26/08:00am 15.7 SW 2 4 1006.2 - 0.0 - - 10 - - - -
26/07:30am 14.0 WNW 2 3 1006.2 - 0.0 - - 10 - - - -
26/07:00am 12.6 SSW 4 5 1006.3 - 0.0 - - 10 - - - -
26/06:30am 13.4 NE 2 4 1006.1 - 0.0 - - 10 - - - -
26/06:00am 13.2 NE 3 4 1006.1 - 0.0 - - 10 - - - -
26/05:30am 13.4 ENE 4 6 1006.0 - 0.0 - - 10 - - - -
26/05:00am 13.9 WNW 3 5 1006.2 - 0.0 - Partly cloudy 10 - - - -
26/04:30am 13.1 CALM 0 0 1006.1 - 0.0 - - 10 - - - -
26/04:00am 13.9 WSW 3 6 1006.1 - 0.0 - - 10 - - - -
26/03:30am 13.3 WSW 1 6 1006.3 - 0.0 - - 10 - - - -
26/03:00am 14.6 WSW 1 5 1006.5 - 0.0 - - 10 - - - -
26/02:30am 16.5 N 6 7 1006.7 - 0.0 - - 10 - - - -
26/02:00am 13.9 E 4 5 1006.9 - 0.0 - - 10 - - - -
26/01:30am 14.0 SE 3 4 1007.1 - 0.0 - - 10 - - - -
26/01:00am 14.5 CALM 0 0 1007.0 - 0.0 - - 10 - - - -
26/12:30am 15.0 CALM 0 0 1007.0 - 0.0 - - 10 - - - -
26/12:00am 16.4 SW 2 5 1007.3 - 0.0 - Mostly cloudy 10 - - - -
 
Date/Time
EST
Temp
°C
Wind Pressure Rain since
9am
mm
Weather Cloud Vis
km
Sea
Height
m
Swell
Dir  Spd
kts
Gust
kts
hPa Trend Height
m
Period
s
Dir
25/11:30pm 18.4 WNW 5 6 1007.5 - 0.0 - - 10 - - - -
25/11:00pm 19.3 NW 7 9 1007.5 - 0.0 - Partly cloudy 10 - - - -
25/10:30pm 19.4 NW 7 9 1007.5 - 0.0 - - 10 - - - -
25/10:00pm 20.0 WNW 8 9 1007.8 - 0.0 - - 10 - - - -
25/09:30pm 20.6 NW 7 10 1008.0 - 0.0 - Partly cloudy 10 - - - -
25/09:00pm 21.2 NW 9 12 1007.8 - 0.0 - Cloudy 10 - - - -
25/08:30pm 21.3 NW 9 14 1008.0 - 0.0 - Partly cloudy 10 - - - -
25/08:00pm 21.4 NNW 10 14 1007.9 - 0.0 - Cloudy 10 - - - -
25/07:30pm 21.9 NW 10 15 1007.9 - 0.0 - Partly cloudy 10 - - - -
25/07:00pm 20.3 NW 4 6 1007.8 - 0.0 - Partly cloudy 10 - - - -
25/06:30pm 21.4 NNW 4 5 1007.7 - 0.0 - Partly cloudy 10 - - - -
25/06:00pm 22.3 NNE 5 7 1007.3 - 0.0 - Mostly cloudy 10 - - - -
25/05:30pm 22.2 NNE 6 9 1007.3 - 0.0 - Partly cloudy 10 - - - -
25/05:00pm 22.1 NE 4 6 1007.2 - 0.0 - Partly cloudy 10 - - - -
25/04:30pm 22.6 N 5 7 1007.0 - 0.0 - Partly cloudy 10 - - - -
25/04:00pm 22.9 NE 7 9 1007.0 - 0.0 - - 10 - - - -
25/03:30pm 22.4 NE 6 8 1007.1 - 0.0 - - 10 - - - -
25/03:00pm 22.4 NNE 8 12 1007.3 - 0.0 - Cloudy 10 - - - -
25/02:30pm 22.5 NNE 6 9 1007.5 - 0.0 - Partly cloudy 10 - - - -
25/02:00pm 23.2 NW 8 11 1007.8 - 0.0 - Partly cloudy 10 - - - -
25/01:30pm 24.1 NW 9 12 1008.2 - 0.0 - Partly cloudy 10 - - - -
25/01:00pm 23.9 W 4 5 1008.4 - 0.0 - Cloudy 10 - - - -
25/12:30pm 24.0 NE 7 11 1008.6 - 0.0 - Partly cloudy 10 - - - -
25/12:00pm 23.5 NE 8 10 1009.3 - 0.0 - Cloudy 10 - - - -
25/11:30am 22.9 NE 7 10 1010.1 - 0.0 - - 10 - - - -
25/11:00am 22.3 NE 4 5 1010.8 - 0.0 - - 10 - - - -
25/10:30am 22.4 NNE 7 10 1011.3 - 0.0 - - 10 - - - -
25/10:00am 22.2 NNW 5 7 1011.9 - 0.0 - - 10 - - - -
25/09:30am 21.2 NNW 8 11 1012.4 - 0.0 - - 10 - - - -
25/09:00am 19.8 NE 1 4 1012.9 - 0.0 - Mostly cloudy 10 - - - -
25/08:30am 18.3 NE 1 3 1013.0 - 0.0 - Cloudy 10 - - - -
25/08:00am 17.3 CALM 0 3 1013.5 - 0.0 - Partly cloudy 10 - - - -
25/07:30am 16.6 WNW 1 3 1013.5 - 0.0 - Partly cloudy 10 - - - -
25/07:00am 16.0 WNW 2 3 1013.5 - 0.0 - Partly cloudy 10 - - - -
25/06:30am 16.0 WNW 5 6 1013.6 - 0.0 - Partly cloudy 10 - - - -
25/06:00am 15.8 W 1 4 1013.6 - 0.0 - Cloudy 10 - - - -
25/05:30am 15.8 W 3 4 1013.7 - 0.0 - Cloudy 10 - - - -
25/05:00am 16.7 WNW 5 8 1013.9 - 0.0 - Partly cloudy 10 - - - -
25/04:30am 17.4 NNW 5 8 1014.0 - 0.0 - - 10 - - - -
25/04:00am 16.0 WNW 3 4 1014.2 - 0.0 - Partly cloudy 10 - - - -
25/03:30am 16.1 CALM 0 0 1014.6 - 0.0 - Partly cloudy 10 - - - -
25/03:00am 16.4 CALM 0 1 1015.0 - 0.0 - Mostly clear 10 - - - -
25/02:30am 18.7 N 7 8 1015.2 - 0.0 - - 10 - - - -
25/02:00am 19.0 N 9 10 1015.6 - 0.0 - Partly cloudy 10 - - - -
25/01:30am 18.6 NNW 7 9 1016.1 - 0.0 - Partly cloudy 10 - - - -
25/01:00am 18.0 WSW 5 7 1016.6 - 0.0 - Partly cloudy 10 - - - -
25/12:30am 18.8 WSW 4 6 1016.8 - 0.0 - Partly cloudy 10 - - - -
25/12:00am 18.2 SE 2 5 1017.2 - 0.0 - Cloudy 10 - - - -
 
Date/Time
EST
Temp
°C
Wind Pressure Rain since
9am
mm
Weather Cloud Vis
km
Sea
Height
m
Swell
Dir  Spd
kts
Gust
kts
hPa Trend Height
m
Period
s
Dir
24/11:30pm 19.3 NW 8 9 1017.4 - 0.0 - Cloudy 10 - - - -
24/11:00pm 16.8 CALM 0 0 1018.0 - 0.0 - Partly cloudy 10 - - - -
24/10:30pm 16.9 NE 2 4 1018.1 - 0.0 - Partly cloudy 10 - - - -
24/10:00pm 16.7 CALM 0 3 1018.4 - 0.0 - Partly cloudy 10 - - - -
24/09:30pm 17.0 CALM 0 0 1018.6 - 0.0 - - 10 - - - -
24/09:00pm 17.1 WNW 5 7 1018.7 - 0.0 - Cloudy 10 - - - -
24/08:30pm 16.9 W 4 5 1018.8 - 0.0 - Partly cloudy 10 - - - -
24/08:00pm 16.9 WNW 4 5 1018.7 - 0.0 - Partly cloudy 10 - - - -
24/07:30pm 17.0 W 3 5 1018.6 - 0.0 - - 10 - - - -
24/07:00pm 17.2 WSW 2 5 1018.6 - 0.0 - - 10 - - - -
24/06:30pm 17.6 WSW 2 4 1018.5 - 0.0 - - 10 - - - -
24/06:00pm 18.9 WNW 4 5 1018.3 - 0.0 - - 10 - - - -
24/05:30pm 20.5 NNE 5 8 1018.0 - 0.0 - - 10 - - - -
24/05:00pm 21.2 NE 5 8 1018.0 - 0.0 - - 10 - - - -
24/04:30pm 21.7 NE 9 11 1017.7 - 0.0 - - 10 - - - -
24/04:00pm 22.1 NE 9 11 1017.8 - 0.0 - - 10 - - - -
24/03:30pm 22.8 ENE 8 9 1018.1 - 0.0 - - 10 - - - -
24/03:00pm 22.7 NE 8 10 1018.2 - 0.0 - - 10 - - - -
24/02:30pm 22.6 NE 8 11 1018.3 - 0.0 - - 10 - - - -
24/02:00pm 23.1 NE 8 11 1018.6 - 0.0 - - 10 - - - -
24/01:30pm 22.9 NE 9 11 1018.9 - 0.0 - - 10 - - - -
24/01:00pm 23.1 NE 9 11 1019.3 - 0.0 - - 10 - - - -
24/12:30pm 22.8 NE 10 12 1019.9 - 0.0 - - 10 - - - -
24/12:00pm 23.1 NE 8 11 1020.5 - 0.0 - - 10 - - - -
24/11:30am 23.4 NE 7 8 1021.0 - 0.0 - - 10 - - - -
24/11:00am 23.3 NNE 5 7 1021.5 - 0.0 - - 10 - - - -
24/10:30am 22.9 NE 6 8 1021.9 - 0.0 - - 10 - - - -
24/10:00am 22.5 NE 5 7 1022.1 - 0.0 - - 10 - - - -
24/09:30am 22.3 NW 1 3 1022.2 - 0.0 - - 10 - - - -
24/09:00am 20.1 CALM 0 0 1022.4 - 0.0 - - 10 - - - -
24/08:30am 18.3 CALM 0 3 1022.4 - 0.0 - - 10 - - - -
24/08:00am 16.3 WNW 4 4 1022.4 - 0.0 - - 10 - - - -
24/07:30am 14.1 CALM 0 0 1022.3 - 0.0 - - 10 - - - -
24/07:00am 12.2 CALM 0 0 1022.1 - 0.0 - - 10 - - - -
24/06:30am 11.6 CALM 0 0 1021.9 - 0.0 - - 10 - - - -
24/06:00am 11.8 CALM 0 0 1021.8 - 0.0 - - 10 - - - -
24/05:30am 12.1 WNW 3 4 1021.7 - 0.0 - - 10 - - - -
24/05:00am 11.8 WNW 3 4 1021.5 - 0.0 - - 10 - - - -
24/04:30am 12.1 WNW 2 5 1021.5 - 0.0 - - 10 - - - -
24/04:00am 12.3 CALM 0 0 1021.4 - 0.0 - - 10 - - - -
24/03:30am 12.2 CALM 0 0 1021.5 - 0.0 - - 10 - - - -
24/03:00am 12.4 CALM 0 0 1021.6 - 0.0 - - 10 - - - -
24/02:30am 12.8 CALM 0 0 1021.8 - 0.0 - - 10 - - - -
24/02:00am 12.9 CALM 0 0 1022.3 - 0.0 - - 10 - - - -
24/01:30am 12.7 WNW 3 4 1022.4 - 0.0 - - 10 - - - -
24/01:00am 13.3 WNW 3 4 1022.6 - 0.0 - - 10 - - - -
24/12:30am 14.1 W 2 4 1022.7 - 0.0 - - 10 - - - -
24/12:00am 13.8 W 4 5 1022.8 - 0.0 - - 10 - - - -
 
Date/Time
EST
Temp
°C
Wind Pressure Rain since
9am
mm
Weather Cloud Vis
km
Sea
Height
m
Swell
Dir  Spd
kts
Gust
kts
hPa Trend Height
m
Period
s
Dir
23/11:30pm 14.1 W 6 7 1023.1 - 0.0 - - 10 - - - -
23/11:00pm 15.0 WSW 6 7 1023.4 - 0.0 - - 10 - - - -
23/10:30pm 14.8 WSW 4 5 1023.4 - 0.0 - - 10 - - - -
23/10:00pm 15.1 W 5 6 1023.5 - 0.0 - - 10 - - - -
23/09:30pm 15.1 WSW 3 5 1023.6 - 0.0 - - 10 - - - -
23/09:00pm 15.3 WSW 3 5 1023.5 - 0.0 - - 10 - - - -
23/08:30pm 15.8 WSW 5 6 1023.4 - 0.0 - - 10 - - - -
23/08:00pm 16.0 WSW 6 7 1023.2 - 0.0 - - 10 - - - -
23/07:30pm 16.5 W 5 6 1023.0 - 0.0 - - 10 - - - -
23/07:00pm 17.4 S 1 3 1022.8 - 0.0 - - 10 - - - -
23/06:30pm 18.1 S 5 5 1022.5 - 0.0 - - 10 - - - -
23/06:00pm 19.2 S 7 8 1022.1 - 0.0 - Partly cloudy 10 - - - -
23/05:30pm 19.9 SSE 5 7 1021.8 - 0.0 - Partly cloudy 10 - - - -
23/05:00pm 20.7 SE 6 8 1021.6 - 0.0 - Partly cloudy 10 - - - -
23/04:30pm 21.6 SE 8 12 1021.4 - 0.0 - Partly cloudy 10 - - - -
23/04:00pm 22.2 ESE 7 10 1021.3 - 0.0 - Partly cloudy 10 - - - -
23/03:30pm 22.6 E 7 11 1021.2 - 0.0 - - 10 - - - -
23/03:00pm 23.1 E 7 10 1021.3 - 0.0 - - 10 - - - -
23/02:30pm 23.4 E 8 11 1021.2 - 0.0 - - 10 - - - -
23/02:00pm 23.9 E 7 9 1021.3 - 0.0 - - 10 - - - -
23/01:30pm 23.5 ESE 9 11 1021.3 - 0.0 - - 10 - - - -
23/01:00pm 24.1 E 6 10 1021.5 - 0.0 - - 10 - - - -
23/12:30pm 23.4 ESE 6 9 1021.9 - 0.0 - - 10 - - - -
23/12:00pm 24.0 NE 7 9 1022.2 - 0.0 - - 10 - - - -
23/11:30am 23.4 NNE 6 9 1022.7 - 0.0 - - 10 - - - -
23/11:00am 23.2 NE 7 8 1023.0 - 0.0 - - 10 - - - -
23/10:30am 23.0 NE 4 7 1023.4 - 0.0 - - 10 - - - -
23/10:00am 23.1 ENE 2 6 1023.7 - 0.0 - - 10 - - - -
23/09:30am 21.6 NW 3 4 1023.8 - 0.0 - - 10 - - - -
23/09:00am 20.2 NW 3 4 1023.9 - 0.0 - - 10 - - - -
23/08:30am 17.9 WSW 3 3 1023.7 - 0.0 - - 10 - - - -

Other Formats:

Comma delimited format used in spreadsheet applications
http://www.bom.gov.au/fwo/IDN60701/IDN60701.95748.axf

JavaScript Object Notation format (JSON) in row-major order
http://www.bom.gov.au/fwo/IDN60701/IDN60701.95748.json